Time;durP1;ratioP1;P1;durP2;ratioP2;P2;SDS_P1;SDS_P2;PMS_P1;PMS_P2;Temp;Humidity;BMP_temperature;BMP_pressure;BME280_temperature;BME280_humidity;BME280_pressure;Samples;Min_cycle;Max_cycle;Signal;HPM_P1;HPM_P2
2022/08/06 04:01:46;;;;;;;3.63;1.60;;;11.50;96.30;;;;;;5315983;23;20486;-78
2022/08/06 04:04:14;;;;;;;2.20;0.80;;;11.40;96.30;;;;;;4954815;29;20433;-78
2022/08/06 04:06:42;;;;;;;2.87;1.30;;;11.30;96.30;;;;;;4954721;29;20896;-78
2022/08/06 04:09:08;;;;;;;3.30;1.00;;;11.30;96.30;;;;;;4952728;28;20411;-79
2022/08/06 04:11:34;;;;;;;1.43;0.90;;;11.30;96.30;;;;;;4954665;28;20434;-79
2022/08/06 04:14:00;;;;;;;3.97;1.00;;;11.30;96.30;;;;;;4955080;28;20414;-77
2022/08/06 04:16:27;;;;;;;1.50;0.90;;;11.30;96.30;;;;;;4955629;28;20419;-81
2022/08/06 04:18:55;;;;;;;1.03;0.93;;;11.30;96.30;;;;;;4953619;29;20902;-81
2022/08/06 04:21:23;;;;;;;4.00;1.10;;;11.40;96.30;;;;;;4956210;28;20467;-81
2022/08/06 04:23:50;;;;;;;2.37;1.20;;;11.40;96.30;;;;;;4954510;29;20658;-80
2022/08/06 04:26:19;;;;;;;3.27;1.00;;;11.40;96.30;;;;;;4954563;29;20473;-81
2022/08/06 04:28:48;;;;;;;3.00;1.00;;;11.50;96.30;;;;;;4956396;28;20461;-81
2022/08/06 04:31:14;;;;;;;2.50;1.10;;;11.70;96.30;;;;;;4955080;28;20439;-81
2022/08/06 04:33:41;;;;;;;5.93;1.47;;;11.80;96.30;;;;;;4956329;28;20489;-81
2022/08/06 04:36:08;;;;;;;2.80;1.03;;;12.00;96.30;;;;;;4954997;28;20186;-81
2022/08/06 04:38:34;;;;;;;2.70;1.10;;;12.20;96.30;;;;;;4954575;29;20430;-80
2022/08/06 04:41:00;;;;;;;1.97;1.20;;;12.40;96.30;;;;;;4954808;28;20558;-80
2022/08/06 04:43:26;;;;;;;1.53;1.10;;;12.70;96.30;;;;;;4956467;28;20238;-80
2022/08/06 04:45:52;;;;;;;2.10;1.10;;;13.10;96.30;;;;;;4956446;29;20419;-80
2022/08/06 04:48:18;;;;;;;2.17;1.10;;;13.30;96.30;;;;;;4955993;29;20627;-80
2022/08/06 04:50:44;;;;;;;6.13;0.90;;;13.60;96.30;;;;;;4956624;28;20430;-81
2022/08/06 04:53:19;;;;;;;1.63;1.03;;;13.80;96.30;;;;;;4957106;29;20469;-81
2022/08/06 04:55:46;;;;;;;7.73;1.77;;;14.10;96.30;;;;;;4957225;28;20636;-80
2022/08/06 04:58:14;;;;;;;2.20;1.00;;;14.60;96.30;;;;;;4956133;29;20422;-81
2022/08/06 05:00:42;;;;;;;7.73;0.90;;;14.90;96.30;;;;;;4923761;28;989307;-79
2022/08/06 05:03:07;;;;;;;5.40;0.90;;;15.00;96.30;;;;;;4957160;29;20210;-79
2022/08/06 05:05:46;;;;;;;1.57;0.80;;;15.30;96.30;;;;;;4957442;29;20431;-79
2022/08/06 05:08:13;;;;;;;1.53;0.90;;;15.30;96.30;;;;;;4957043;29;20214;-79
2022/08/06 05:10:51;;;;;;;2.87;0.80;;;15.40;96.30;;;;;;4956781;28;20446;-80
2022/08/06 05:13:20;;;;;;;0.90;0.70;;;15.10;96.30;;;;;;4958278;28;20417;-79
2022/08/06 05:15:51;;;;;;;1.73;0.77;;;15.00;96.30;;;;;;4957792;28;20465;-79
2022/08/06 05:18:23;;;;;;;1.40;1.10;;;14.70;96.30;;;;;;4956284;29;20414;-80
2022/08/06 05:20:52;;;;;;;4.77;0.70;;;14.60;96.30;;;;;;4957687;28;20890;-80
2022/08/06 05:23:21;;;;;;;1.63;0.90;;;14.20;96.30;;;;;;4957833;28;20419;-80
2022/08/06 05:25:50;;;;;;;2.30;0.80;;;14.10;96.30;;;;;;4956054;29;20418;-80
2022/08/06 05:28:16;;;;;;;1.87;0.70;;;14.00;96.30;;;;;;4955427;29;20485;-79
2022/08/06 05:30:43;;;;;;;1.63;0.80;;;14.00;96.30;;;;;;4957291;28;20910;-80
2022/08/06 05:33:09;;;;;;;2.93;0.87;;;14.00;96.30;;;;;;4956179;29;20193;-80
2022/08/06 05:35:34;;;;;;;0.80;0.60;;;13.90;96.30;;;;;;4955836;29;20482;-80
2022/08/06 05:38:00;;;;;;;2.70;0.80;;;13.90;96.30;;;;;;4956952;29;20186;-78
2022/08/06 05:40:33;;;;;;;3.00;1.17;;;14.20;96.30;;;;;;4955592;28;20912;-79
2022/08/06 05:42:59;;;;;;;1.77;0.90;;;14.50;96.30;;;;;;4957477;28;20175;-78
2022/08/06 05:45:26;;;;;;;3.63;0.80;;;14.60;96.30;;;;;;4956169;29;20414;-79
2022/08/06 05:47:52;;;;;;;5.30;0.77;;;14.40;96.30;;;;;;4958373;28;20170;-79
2022/08/06 05:50:22;;;;;;;2.37;0.77;;;14.40;96.30;;;;;;4963244;28;20465;-79
2022/08/06 05:53:06;;;;;;;1.67;0.60;;;14.30;96.30;;;;;;4963589;28;20418;-78
2022/08/06 05:55:50;;;;;;;1.50;0.70;;;14.10;96.30;;;;;;4963392;28;20410;-78
2022/08/06 05:58:23;;;;;;;1.93;0.80;;;14.10;96.30;;;;;;4962596;28;20419;-78
2022/08/06 06:00:51;;;;;;;1.40;0.80;;;14.20;96.30;;;;;;4961889;28;20565;-78
2022/08/06 06:03:19;;;;;;;1.77;0.70;;;14.20;96.30;;;;;;4963086;29;20445;-79
2022/08/06 06:05:44;;;;;;;1.73;0.83;;;14.40;96.30;;;;;;4966980;28;20493;-79
2022/08/06 06:08:10;;;;;;;2.73;0.70;;;14.50;96.30;;;;;;4966285;28;20496;-79
2022/08/06 06:10:38;;;;;;;1.57;0.80;;;14.60;96.30;;;;;;4964739;28;20981;-81
2022/08/06 06:13:05;;;;;;;3.27;1.03;;;14.90;96.30;;;;;;4960394;28;20171;-80
2022/08/06 06:15:34;;;;;;;1.10;0.60;;;15.10;96.30;;;;;;4960949;28;20414;-80
2022/08/06 06:18:29;;;;;;;9.13;1.30;;;15.50;96.30;;;;;;4961088;28;20422;-81
2022/08/06 06:21:30;;;;;;;7.33;0.93;;;16.30;96.30;;;;;;4961348;28;20470;-79
2022/08/06 06:24:13;;;;;;;1.53;0.60;;;17.00;96.30;;;;;;4957674;28;20414;-81
2022/08/06 06:26:48;;;;;;;3.17;0.90;;;17.10;96.30;;;;;;4961831;28;20481;-77
2022/08/06 06:29:26;;;;;;;3.03;0.90;;;17.00;96.30;;;;;;4959476;28;20416;-78
2022/08/06 06:32:01;;;;;;;1.77;0.70;;;17.00;96.30;;;;;;4958921;28;20867;-77
2022/08/06 06:34:41;;;;;;;2.30;0.80;;;16.70;96.30;;;;;;4960639;28;20494;-79
2022/08/06 06:37:16;;;;;;;1.53;0.80;;;16.00;96.30;;;;;;4960858;28;20870;-80
2022/08/06 06:39:52;;;;;;;3.73;0.80;;;15.60;96.30;;;;;;4958861;28;20461;-80
2022/08/06 06:42:33;;;;;;;2.70;0.80;;;15.90;96.30;;;;;;4962335;28;20465;-80
2022/08/06 06:45:04;;;;;;;2.23;0.70;;;16.20;96.30;;;;;;4962079;28;20442;-80
2022/08/06 06:47:57;;;;;;;2.50;0.73;;;15.90;96.30;;;;;;4961348;28;20442;-80
2022/08/06 06:50:46;;;;;;;1.63;0.70;;;15.80;96.30;;;;;;4961703;28;20410;-80
2022/08/06 06:53:14;;;;;;;2.57;0.80;;;16.00;96.30;;;;;;4960541;28;20922;-81
2022/08/06 06:55:44;;;;;;;3.23;0.70;;;16.00;96.30;;;;;;4961292;29;20422;-79
2022/08/06 06:58:35;;;;;;;1.50;1.10;;;16.10;96.30;;;;;;4959771;29;20437;-80
2022/08/06 07:01:08;;;;;;;2.23;0.70;;;16.20;96.30;;;;;;4958732;28;21078;-81
2022/08/06 07:03:37;;;;;;;1.77;0.80;;;16.00;96.30;;;;;;4957327;29;20427;-80
2022/08/06 07:06:05;;;;;;;7.90;0.90;;;15.80;96.30;;;;;;4958033;28;20442;-80
2022/08/06 07:08:33;;;;;;;2.30;0.60;;;15.70;96.30;;;;;;4957737;28;20411;-80
2022/08/06 07:11:00;;;;;;;2.13;0.70;;;15.40;96.30;;;;;;4956080;28;20442;-81
2022/08/06 07:13:27;;;;;;;2.67;0.80;;;15.20;96.30;;;;;;4955938;29;20488;-79
2022/08/06 07:15:54;;;;;;;8.03;0.90;;;15.10;96.30;;;;;;4957455;28;20421;-80
2022/08/06 07:18:21;;;;;;;1.17;0.70;;;15.30;96.30;;;;;;4957369;28;20869;-79
2022/08/06 07:20:47;;;;;;;2.53;0.70;;;15.90;96.30;;;;;;4959272;28;20462;-79
2022/08/06 07:23:16;;;;;;;1.20;0.67;;;16.70;96.30;;;;;;4958986;29;20783;-80
2022/08/06 07:25:43;;;;;;;2.50;0.80;;;16.30;96.30;;;;;;4958546;28;20167;-80
2022/08/06 07:28:11;;;;;;;2.27;0.80;;;16.30;96.30;;;;;;4956863;29;20422;-79
2022/08/06 07:30:37;;;;;;;2.90;0.73;;;16.40;96.30;;;;;;4957740;28;20438;-78
2022/08/06 07:33:04;;;;;;;4.27;0.90;;;17.30;96.30;;;;;;4959097;28;20426;-79
2022/08/06 07:35:31;;;;;;;3.20;0.87;;;18.00;96.30;;;;;;4958355;29;20989;-80
2022/08/06 07:38:00;;;;;;;2.70;0.70;;;18.30;96.30;;;;;;4958986;28;20414;-79
2022/08/06 07:40:32;;;;;;;1.37;0.70;;;19.20;96.30;;;;;;4957711;28;20958;-79
2022/08/06 07:43:21;;;;;;;1.73;0.90;;;19.50;96.30;;;;;;4959368;28;20403;-79
2022/08/06 07:45:49;;;;;;;3.00;0.80;;;19.20;96.30;;;;;;4958389;29;20421;-80
2022/08/06 07:48:16;;;;;;;1.10;0.70;;;19.00;96.30;;;;;;4957731;29;20418;-79
2022/08/06 07:50:46;;;;;;;1.37;0.60;;;19.40;96.30;;;;;;4959500;28;20485;-79
2022/08/06 07:53:13;;;;;;;3.53;0.70;;;19.70;96.30;;;;;;4959307;28;20511;-79
2022/08/06 07:55:39;;;;;;;2.03;0.70;;;18.80;96.30;;;;;;4958875;28;20427;-79
2022/08/06 07:58:06;;;;;;;2.80;0.77;;;17.80;96.30;;;;;;4957654;29;20422;-79
2022/08/06 08:00:32;;;;;;;1.33;0.60;;;17.90;96.30;;;;;;4959127;28;20717;-78
2022/08/06 08:08:29;;;;;;;2.23;0.70;;;20.30;96.30;;;;;;4958860;29;21021;-80
2022/08/06 08:10:55;;;;;;;1.63;0.80;;;19.20;96.30;;;;;;4957968;28;20986;-80
2022/08/06 08:13:24;;;;;;;2.80;0.70;;;18.90;96.30;;;;;;4959355;29;20415;-79
2022/08/06 08:15:51;;;;;;;2.13;0.70;;;18.30;96.30;;;;;;4957379;29;20655;-80
2022/08/06 08:18:16;;;;;;;3.73;0.80;;;17.50;96.30;;;;;;4957566;28;20415;-79
2022/08/06 08:20:44;;;;;;;1.97;0.77;;;17.20;96.30;;;;;;4956656;28;20808;-78
2022/08/06 08:23:12;;;;;;;2.17;0.83;;;17.60;96.30;;;;;;4957182;29;20175;-79
2022/08/06 08:25:39;;;;;;;2.43;0.70;;;18.50;96.30;;;;;;4959442;28;20415;-79
2022/08/06 08:28:06;;;;;;;1.20;0.60;;;19.20;96.30;;;;;;4956590;29;20457;-79
2022/08/06 08:30:31;;;;;;;2.40;0.90;;;20.10;95.60;;;;;;4959029;28;20435;-79
2022/08/06 08:32:57;;;;;;;1.30;0.60;;;21.40;93.40;;;;;;4958342;29;20994;-79
2022/08/06 08:35:22;;;;;;;3.53;1.00;;;21.30;91.60;;;;;;4958581;29;20186;-79
2022/08/06 08:37:48;;;;;;;1.67;0.60;;;20.20;90.60;;;;;;4958919;29;20207;-79
2022/08/06 08:40:13;;;;;;;4.07;0.70;;;20.00;91.70;;;;;;4957667;28;20271;-79
2022/08/06 08:42:45;;;;;;;1.60;0.70;;;19.70;91.70;;;;;;4957744;29;20174;-79
2022/08/06 08:45:13;;;;;;;1.77;0.60;;;19.80;93.60;;;;;;4958745;28;20698;-80
2022/08/06 08:47:45;;;;;;;2.13;0.70;;;19.80;96.30;;;;;;4958789;28;20407;-79
2022/08/06 08:50:11;;;;;;;3.10;0.70;;;19.20;96.30;;;;;;4958133;28;20439;-79
2022/08/06 08:52:40;;;;;;;2.67;0.70;;;18.90;96.30;;;;;;4958724;28;20422;-80
2022/08/06 08:55:09;;;;;;;1.40;0.67;;;18.60;96.30;;;;;;4958517;28;20418;-79
2022/08/06 08:57:36;;;;;;;1.30;0.60;;;19.10;96.30;;;;;;4958650;28;20417;-79
2022/08/06 09:00:04;;;;;;;1.10;0.60;;;19.70;95.20;;;;;;4957949;28;20520;-79
2022/08/06 09:02:30;;;;;;;1.53;0.70;;;20.60;94.50;;;;;;4957887;28;20525;-79
2022/08/06 09:04:56;;;;;;;1.13;0.70;;;21.00;91.10;;;;;;4958318;28;20438;-79
2022/08/06 09:07:22;;;;;;;5.23;0.90;;;20.30;93.30;;;;;;4957274;29;20415;-78
2022/08/06 09:09:48;;;;;;;3.33;0.70;;;20.00;93.70;;;;;;4957138;29;20431;-79
2022/08/06 09:12:14;;;;;;;1.30;0.53;;;19.90;94.10;;;;;;4956648;28;20691;-78
2022/08/06 09:14:43;;;;;;;1.27;0.63;;;20.60;92.60;;;;;;4958239;29;20430;-80
2022/08/06 09:17:09;;;;;;;2.50;0.67;;;20.80;91.70;;;;;;4958094;28;20261;-79
2022/08/06 09:19:34;;;;;;;1.20;0.60;;;20.60;93.60;;;;;;4957922;29;20458;-79
2022/08/06 09:22:00;;;;;;;9.53;1.03;;;20.70;88.20;;;;;;4958572;28;20191;-80
2022/08/06 09:24:27;;;;;;;2.03;0.70;;;21.30;87.10;;;;;;4956642;29;20819;-80
2022/08/06 09:27:12;;;;;;;1.80;0.70;;;21.60;85.30;;;;;;4958792;28;20218;-79
2022/08/06 09:29:52;;;;;;;2.37;0.60;;;22.10;87.30;;;;;;4956363;29;20529;-79
2022/08/06 09:32:44;;;;;;;3.63;1.80;;;21.60;90.40;;;;;;4958127;28;21033;-79
2022/08/06 09:35:17;;;;;;;1.83;0.60;;;21.40;91.00;;;;;;4958430;28;20410;-81
2022/08/06 09:37:43;;;;;;;3.37;1.27;;;22.00;88.80;;;;;;4957964;28;20425;-79
2022/08/06 09:40:19;;;;;;;1.50;0.60;;;22.00;87.00;;;;;;4955827;29;20454;-80
2022/08/06 09:42:50;;;;;;;0.90;0.50;;;22.20;84.80;;;;;;4957144;29;20178;-79
2022/08/06 09:45:19;;;;;;;1.20;0.50;;;22.10;86.60;;;;;;4958829;28;20462;-79
2022/08/06 09:47:46;;;;;;;1.30;0.73;;;22.10;82.00;;;;;;4958464;28;20407;-79
2022/08/06 09:50:12;;;;;;;2.27;0.60;;;22.00;82.60;;;;;;4956673;28;20481;-79
2022/08/06 09:52:37;;;;;;;2.03;0.67;;;21.70;83.90;;;;;;4958196;29;20422;-79
2022/08/06 09:55:03;;;;;;;2.80;0.70;;;22.30;83.60;;;;;;4957731;29;20182;-80
2022/08/06 09:57:43;;;;;;;4.43;0.60;;;22.40;84.10;;;;;;4958102;28;20182;-79
2022/08/06 10:00:10;;;;;;;2.60;0.60;;;22.10;85.20;;;;;;4957163;28;20485;-79
2022/08/06 10:02:36;;;;;;;2.07;0.70;;;21.30;85.90;;;;;;4959782;28;20450;-80
2022/08/06 10:05:13;;;;;;;1.40;0.60;;;20.50;88.70;;;;;;4962480;29;20411;-80
2022/08/06 10:07:39;;;;;;;1.23;0.50;;;21.10;85.80;;;;;;4962542;28;20251;-79
2022/08/06 10:10:06;;;;;;;1.87;0.60;;;21.10;86.90;;;;;;4956606;28;20920;-79
2022/08/06 10:12:32;;;;;;;2.97;1.03;;;21.90;85.40;;;;;;4957814;28;20206;-79
2022/08/06 10:14:59;;;;;;;2.40;0.90;;;21.50;83.10;;;;;;4954561;29;20422;-77
2022/08/06 10:17:25;;;;;;;2.90;0.70;;;21.50;83.60;;;;;;4953365;29;20426;-79
2022/08/06 10:20:13;;;;;;;1.17;0.53;;;21.30;85.10;;;;;;4952138;29;20828;-79
2022/08/06 10:22:57;;;;;;;2.00;0.60;;;20.90;87.20;;;;;;4953640;28;20425;-78
2022/08/06 10:25:23;;;;;;;2.30;0.70;;;21.90;84.20;;;;;;4953606;28;20391;-78
2022/08/06 10:27:53;;;;;;;1.63;0.90;;;21.20;86.00;;;;;;4953367;28;20803;-81
2022/08/06 10:30:20;;;;;;;1.63;0.63;;;20.50;88.00;;;;;;4953601;28;21012;-78
2022/08/06 10:32:49;;;;;;;3.73;0.80;;;21.00;82.70;;;;;;4953545;28;20895;-78
2022/08/06 10:35:20;;;;;;;1.43;0.50;;;20.90;85.50;;;;;;4955788;28;20473;-78
2022/08/06 10:37:50;;;;;;;2.13;0.87;;;20.70;85.50;;;;;;4957247;28;20769;-79
2022/08/06 10:40:18;;;;;;;2.40;0.80;;;20.30;87.80;;;;;;4956741;28;20986;-79
2022/08/06 10:42:44;;;;;;;3.17;0.70;;;20.10;87.40;;;;;;4957206;28;20415;-78
2022/08/06 10:45:11;;;;;;;1.17;0.60;;;20.00;89.80;;;;;;4955814;29;20470;-79
2022/08/06 10:47:38;;;;;;;2.33;0.77;;;20.50;88.50;;;;;;4957126;28;20402;-78
2022/08/06 10:50:04;;;;;;;0.93;0.50;;;21.00;87.70;;;;;;4960175;28;20417;-80
2022/08/06 10:52:31;;;;;;;0.83;0.50;;;22.30;86.90;;;;;;4961216;28;20437;-80
2022/08/06 10:54:59;;;;;;;3.37;0.93;;;23.20;83.60;;;;;;4960501;28;20413;-79
2022/08/06 10:57:26;;;;;;;1.30;0.70;;;22.80;81.10;;;;;;4959676;29;20481;-79
2022/08/06 10:59:52;;;;;;;1.00;0.60;;;23.40;80.20;;;;;;4960461;28;20549;-80
2022/08/06 11:02:39;;;;;;;2.27;0.80;;;22.90;80.10;;;;;;4960145;28;20485;-80
2022/08/06 11:05:13;;;;;;;2.80;0.70;;;23.50;77.90;;;;;;4961378;29;20176;-80
2022/08/06 11:08:00;;;;;;;1.53;0.70;;;22.10;81.40;;;;;;4960872;28;20415;-80
2022/08/06 11:10:36;;;;;;;5.03;0.60;;;21.90;79.50;;;;;;4959095;28;20418;-81
2022/08/06 11:13:16;;;;;;;2.20;0.67;;;21.50;79.50;;;;;;4961272;28;21033;-81
2022/08/06 11:15:42;;;;;;;0.90;0.60;;;21.10;79.40;;;;;;4960568;29;20403;-80
2022/08/06 11:18:11;;;;;;;2.10;0.70;;;21.30;85.60;;;;;;4960474;28;21325;-79
2022/08/06 11:20:42;;;;;;;1.20;0.70;;;22.70;87.30;;;;;;4960253;28;20513;-80
2022/08/06 11:23:13;;;;;;;4.50;0.87;;;23.40;77.40;;;;;;4960717;28;20406;-80
2022/08/06 11:25:53;;;;;;;2.50;0.97;;;22.90;82.00;;;;;;4960463;29;20410;-78
2022/08/06 11:28:30;;;;;;;5.43;0.60;;;22.80;78.20;;;;;;4958805;29;20849;-80
2022/08/06 11:30:57;;;;;;;2.47;0.80;;;22.30;77.40;;;;;;4960349;28;20441;-79
2022/08/06 11:33:35;;;;;;;2.40;0.63;;;21.20;79.00;;;;;;4960309;28;20415;-78
2022/08/06 11:36:01;;;;;;;1.37;0.60;;;21.80;83.00;;;;;;4960167;29;20824;-79
2022/08/06 11:38:42;;;;;;;1.53;0.70;;;22.30;84.30;;;;;;4959523;28;20419;-79
2022/08/06 11:41:10;;;;;;;2.50;0.77;;;22.80;77.50;;;;;;4958737;28;20494;-79
2022/08/06 11:43:51;;;;;;;1.53;0.50;;;22.00;79.60;;;;;;4958912;29;20776;-79
2022/08/06 11:46:31;;;;;;;1.47;0.50;;;22.10;79.40;;;;;;4959319;28;20418;-79
2022/08/06 11:48:59;;;;;;;3.30;0.60;;;21.30;80.10;;;;;;4958648;28;20961;-79
2022/08/06 11:51:42;;;;;;;2.07;0.70;;;21.10;83.30;;;;;;4958818;28;20568;-80
2022/08/06 11:54:28;;;;;;;1.37;0.60;;;21.50;82.40;;;;;;4960719;28;20830;-80
2022/08/06 11:57:06;;;;;;;2.30;0.70;;;22.00;79.50;;;;;;4960457;28;20506;-79
2022/08/06 11:59:34;;;;;;;1.70;0.67;;;23.20;80.40;;;;;;4958870;28;20477;-79
2022/08/06 12:02:02;;;;;;;2.03;1.00;;;23.40;76.80;;;;;;4959944;28;20446;-79
2022/08/06 12:04:36;;;;;;;4.90;0.80;;;21.80;78.40;;;;;;4959614;28;20438;-79
2022/08/06 12:07:16;;;;;;;3.13;1.23;;;21.60;80.70;;;;;;4960066;29;20418;-78
2022/08/06 12:09:42;;;;;;;3.30;0.70;;;21.30;82.20;;;;;;4957524;29;20430;-79
2022/08/06 12:12:28;;;;;;;2.03;0.60;;;21.20;82.00;;;;;;4959822;28;21066;-80
2022/08/06 12:14:59;;;;;;;3.97;0.83;;;21.30;77.40;;;;;;4959523;29;20415;-79
2022/08/06 12:17:29;;;;;;;1.70;0.80;;;21.30;78.50;;;;;;4959712;28;20415;-79
2022/08/06 12:20:02;;;;;;;3.70;0.87;;;21.30;78.60;;;;;;4959028;28;20462;-78
2022/08/06 12:22:29;;;;;;;2.27;0.70;;;21.80;76.80;;;;;;4959690;28;20914;-79
2022/08/06 12:24:58;;;;;;;7.00;0.90;;;21.60;74.90;;;;;;4959512;28;20410;-80
2022/08/06 12:27:31;;;;;;;1.90;0.77;;;21.90;76.10;;;;;;4959518;28;20414;-79
2022/08/06 12:29:58;;;;;;;2.17;0.60;;;22.60;75.10;;;;;;4958775;29;20414;-79
2022/08/06 12:32:26;;;;;;;1.17;0.60;;;23.00;79.30;;;;;;4959103;28;20450;-79
2022/08/06 12:34:53;;;;;;;4.30;0.70;;;23.20;76.30;;;;;;4957827;29;20466;-78
2022/08/06 12:37:19;;;;;;;1.50;1.03;;;23.00;76.60;;;;;;4957647;29;20450;-79
2022/08/06 12:42:30;;;;;;;0.80;0.57;;;23.00;76.30;;;;;;4959133;28;20277;-79
2022/08/06 12:44:56;;;;;;;1.10;0.60;;;23.20;75.00;;;;;;4957854;29;20426;-79
2022/08/06 12:47:25;;;;;;;0.90;0.60;;;23.40;77.60;;;;;;4958933;29;20454;-78
2022/08/06 12:49:52;;;;;;;2.07;0.80;;;23.50;72.90;;;;;;4957216;29;20249;-79
2022/08/06 12:52:20;;;;;;;3.90;0.80;;;23.60;74.50;;;;;;4959291;28;20465;-79
2022/08/06 12:54:46;;;;;;;3.43;1.00;;;23.30;72.50;;;;;;4959105;28;20422;-79
2022/08/06 12:57:23;;;;;;;2.57;0.70;;;23.40;77.80;;;;;;4958932;28;20421;-79
2022/08/06 12:59:50;;;;;;;4.80;1.20;;;24.20;74.60;;;;;;4957606;28;20489;-79
2022/08/06 13:02:18;;;;;;;4.23;1.13;;;23.20;73.20;;;;;;4958894;28;20526;-79
2022/08/06 13:04:48;;;;;;;5.00;0.70;;;23.30;75.00;;;;;;4958356;28;21018;-80
2022/08/06 13:07:15;;;;;;;1.10;0.60;;;22.80;72.70;;;;;;4959218;28;20458;-79
2022/08/06 13:09:42;;;;;;;4.17;1.00;;;22.40;73.70;;;;;;4958082;28;20427;-78
2022/08/06 13:12:15;;;;;;;2.23;0.67;;;22.60;72.90;;;;;;4958631;28;20993;-80
2022/08/06 13:14:52;;;;;;;4.40;0.70;;;22.90;72.90;;;;;;4958769;28;20415;-79
2022/08/06 13:17:21;;;;;;;0.80;0.50;;;22.60;74.70;;;;;;4958248;28;20418;-79
2022/08/06 13:19:55;;;;;;;1.80;0.53;;;22.90;76.10;;;;;;4958589;28;20469;-79
2022/08/06 13:22:21;;;;;;;6.60;1.10;;;23.50;73.20;;;;;;4958584;28;20434;-79
2022/08/06 13:24:47;;;;;;;1.30;0.67;;;24.20;74.30;;;;;;4958366;28;20421;-80
2022/08/06 13:27:12;;;;;;;0.90;0.60;;;23.70;71.40;;;;;;4958283;28;20447;-79
2022/08/06 13:29:59;;;;;;;1.73;0.60;;;23.80;74.30;;;;;;4958171;29;20182;-79
2022/08/06 13:32:26;;;;;;;1.43;0.60;;;24.70;74.00;;;;;;4957603;28;20218;-79
2022/08/06 13:34:55;;;;;;;5.00;0.90;;;25.00;70.80;;;;;;4958669;28;20407;-78
2022/08/06 13:37:49;;;;;;;3.63;0.97;;;25.30;71.30;;;;;;4958251;28;20414;-79
2022/08/06 13:40:16;;;;;;;2.07;0.90;;;24.10;70.30;;;;;;4955968;28;20465;-79
2022/08/06 13:42:53;;;;;;;0.90;0.50;;;22.80;72.90;;;;;;4958641;28;20410;-79
2022/08/06 13:45:24;;;;;;;2.20;1.20;;;22.50;73.40;;;;;;4957100;29;20422;-79
2022/08/06 13:47:51;;;;;;;1.20;0.60;;;22.60;72.80;;;;;;4958108;28;20410;-79
2022/08/06 13:50:20;;;;;;;1.53;0.83;;;22.30;72.10;;;;;;4957411;28;20509;-79
2022/08/06 13:52:46;;;;;;;2.80;0.70;;;23.40;72.70;;;;;;4958407;28;20484;-79
2022/08/06 13:55:11;;;;;;;2.13;0.70;;;23.60;71.00;;;;;;4957639;28;20446;-79
2022/08/06 13:57:37;;;;;;;3.10;1.00;;;23.40;74.60;;;;;;4958038;29;20415;-79
2022/08/06 14:00:06;;;;;;;1.83;0.60;;;24.20;70.30;;;;;;4960693;29;20202;-79
2022/08/06 14:02:32;;;;;;;1.50;0.60;;;24.60;68.30;;;;;;4963531;28;20202;-79
2022/08/06 14:04:57;;;;;;;1.80;0.77;;;24.20;69.70;;;;;;4960061;28;20486;-79
2022/08/06 14:07:23;;;;;;;2.73;0.60;;;24.40;70.40;;;;;;4957619;29;20438;-79
2022/08/06 14:09:48;;;;;;;2.83;0.60;;;24.90;70.90;;;;;;4957896;28;20242;-78
2022/08/06 14:12:14;;;;;;;2.40;0.80;;;25.40;69.00;;;;;;4962194;28;20210;-79
2022/08/06 14:14:39;;;;;;;1.10;0.70;;;25.60;71.20;;;;;;4962474;29;20318;-79
2022/08/06 14:17:05;;;;;;;1.00;0.60;;;25.30;66.60;;;;;;4961989;29;20182;-78
2022/08/06 14:19:30;;;;;;;1.80;0.70;;;24.60;68.30;;;;;;4961300;29;20208;-79
2022/08/06 14:21:56;;;;;;;14.50;1.00;;;24.30;68.70;;;;;;4962081;28;20668;-79
2022/08/06 14:24:22;;;;;;;1.10;0.50;;;23.50;70.90;;;;;;4960137;29;20167;-78
2022/08/06 14:26:47;;;;;;;2.03;0.63;;;23.30;72.10;;;;;;4960550;29;20173;-79
2022/08/06 14:29:13;;;;;;;1.33;0.93;;;23.10;71.60;;;;;;4961227;29;20456;-80
2022/08/06 14:31:38;;;;;;;1.17;0.60;;;23.20;70.40;;;;;;4961517;28;20205;-79
2022/08/06 14:34:04;;;;;;;1.83;0.70;;;23.50;70.40;;;;;;4961491;29;20652;-79
2022/08/06 14:36:30;;;;;;;1.03;0.50;;;23.30;70.20;;;;;;4960214;29;20190;-79
2022/08/06 14:38:56;;;;;;;1.80;0.67;;;23.30;72.40;;;;;;4960308;29;20640;-78
2022/08/06 14:46:51;;;;;;;1.10;0.60;;;22.10;73.30;;;;;;4961442;29;20501;-79
2022/08/06 14:49:17;;;;;;;1.20;0.60;;;21.50;73.50;;;;;;4959405;29;20438;-79
2022/08/06 14:51:42;;;;;;;2.20;0.67;;;21.70;75.00;;;;;;4961139;28;20202;-79
2022/08/06 14:54:08;;;;;;;4.00;0.77;;;22.70;75.40;;;;;;4960943;29;20202;-79
2022/08/06 14:56:34;;;;;;;1.77;0.67;;;23.60;70.10;;;;;;4961047;28;20257;-79
2022/08/06 14:58:59;;;;;;;1.73;0.73;;;23.80;68.70;;;;;;4959650;29;20210;-79
2022/08/06 15:01:25;;;;;;;3.73;0.73;;;23.40;69.90;;;;;;4960638;28;20607;-79
2022/08/06 15:03:50;;;;;;;0.90;0.60;;;22.60;72.10;;;;;;4960736;29;20182;-79
2022/08/06 15:06:15;;;;;;;1.77;0.70;;;22.70;72.50;;;;;;4960747;29;20193;-79
2022/08/06 15:08:41;;;;;;;1.23;0.60;;;22.70;72.30;;;;;;4960293;29;20651;-79
2022/08/06 15:11:07;;;;;;;0.90;0.60;;;22.90;72.20;;;;;;4960709;28;20229;-78
2022/08/06 15:13:32;;;;;;;1.20;0.70;;;22.70;70.90;;;;;;4961250;29;20179;-79
2022/08/06 15:15:58;;;;;;;1.17;0.50;;;22.30;70.70;;;;;;4960991;29;20259;-79
2022/08/06 15:18:23;;;;;;;1.37;0.70;;;22.30;72.30;;;;;;4962073;29;20183;-79
2022/08/06 15:20:49;;;;;;;1.20;0.60;;;22.50;73.10;;;;;;4959748;28;20246;-79
2022/08/06 15:23:15;;;;;;;3.23;0.70;;;22.60;71.80;;;;;;4959968;29;20202;-79
2022/08/06 15:25:41;;;;;;;1.23;0.63;;;22.70;72.80;;;;;;4961342;28;20182;-80
2022/08/06 15:28:06;;;;;;;1.37;0.60;;;22.80;72.80;;;;;;4960383;28;20418;-79
2022/08/06 15:30:32;;;;;;;1.67;0.70;;;23.00;73.00;;;;;;4960850;28;20195;-79
2022/08/06 15:32:58;;;;;;;3.53;0.60;;;23.40;73.10;;;;;;4960547;29;20201;-78
2022/08/06 15:35:24;;;;;;;1.30;0.70;;;23.60;71.40;;;;;;4960945;28;20167;-79
2022/08/06 15:37:49;;;;;;;0.90;0.60;;;23.70;71.50;;;;;;4959305;29;20434;-79
2022/08/06 15:40:15;;;;;;;1.43;0.80;;;23.90;71.10;;;;;;4958615;28;20281;-79
2022/08/06 15:42:40;;;;;;;3.97;0.90;;;24.10;71.60;;;;;;4959196;29;20193;-79
2022/08/06 15:45:07;;;;;;;1.10;0.60;;;24.20;70.00;;;;;;4960665;29;20176;-79
2022/08/06 15:47:32;;;;;;;1.30;0.60;;;24.00;68.30;;;;;;4959025;29;20175;-79
2022/08/06 15:49:58;;;;;;;3.23;0.63;;;23.40;70.70;;;;;;4959790;29;20445;-80
2022/08/06 15:52:24;;;;;;;1.63;0.70;;;23.30;70.40;;;;;;4960364;28;20816;-80
2022/08/06 15:54:49;;;;;;;1.17;0.60;;;23.20;70.10;;;;;;4960082;29;20183;-79
2022/08/06 15:57:18;;;;;;;1.57;0.50;;;23.30;69.50;;;;;;4959357;29;20613;-79
2022/08/06 15:59:43;;;;;;;2.07;0.60;;;23.10;70.30;;;;;;4958440;29;20175;-79
2022/08/06 16:02:09;;;;;;;1.17;0.67;;;23.20;70.80;;;;;;4958611;28;20447;-79
2022/08/06 16:04:34;;;;;;;1.30;0.50;;;23.20;69.80;;;;;;4959328;29;20178;-79
2022/08/06 16:07:00;;;;;;;2.10;0.90;;;23.30;70.90;;;;;;4958897;29;20791;-79
2022/08/06 16:09:26;;;;;;;0.90;0.60;;;23.40;70.20;;;;;;4959099;28;20262;-79
2022/08/06 16:11:51;;;;;;;1.30;0.80;;;23.10;70.30;;;;;;4959905;28;20470;-79
2022/08/06 16:14:17;;;;;;;1.03;0.67;;;23.20;72.30;;;;;;4960516;29;20201;-78
2022/08/06 16:16:42;;;;;;;1.63;0.63;;;23.30;69.40;;;;;;4959939;29;20178;-77
2022/08/06 16:19:08;;;;;;;3.23;0.70;;;22.70;69.60;;;;;;4954886;29;20258;-77
2022/08/06 16:21:33;;;;;;;3.00;0.83;;;21.80;72.30;;;;;;4955409;28;20618;-79
2022/08/06 16:23:59;;;;;;;1.20;0.70;;;21.60;72.90;;;;;;4955472;29;20167;-78
2022/08/06 16:26:25;;;;;;;2.47;0.90;;;21.40;73.20;;;;;;4955301;28;20203;-77
2022/08/06 16:28:51;;;;;;;1.77;0.63;;;21.00;74.90;;;;;;4953597;29;20625;-77
2022/08/06 16:31:16;;;;;;;1.30;0.60;;;21.10;74.90;;;;;;4955337;28;20521;-77
2022/08/06 16:33:42;;;;;;;0.80;0.50;;;21.30;73.10;;;;;;4954771;28;20175;-77
2022/08/06 16:36:07;;;;;;;0.80;0.53;;;21.30;74.40;;;;;;4955222;29;20179;-77
2022/08/06 16:38:33;;;;;;;1.60;0.70;;;21.40;74.30;;;;;;4953356;29;20179;-77
2022/08/06 16:40:58;;;;;;;1.73;0.60;;;21.40;71.60;;;;;;4954807;28;20269;-77
2022/08/06 16:43:27;;;;;;;2.03;0.70;;;21.50;71.70;;;;;;4955107;29;20175;-81
2022/08/06 16:45:53;;;;;;;2.87;0.70;;;21.60;72.40;;;;;;4955118;28;20163;-77
2022/08/06 16:48:18;;;;;;;1.40;0.60;;;21.80;71.80;;;;;;4954353;29;20417;-82
2022/08/06 16:50:43;;;;;;;2.03;0.70;;;21.90;72.30;;;;;;4954845;28;20687;-77
2022/08/06 16:53:10;;;;;;;1.00;0.60;;;21.80;72.70;;;;;;4954873;29;20182;-79
2022/08/06 16:55:36;;;;;;;2.07;0.70;;;21.60;74.10;;;;;;4954760;28;20654;-77
2022/08/06 16:58:06;;;;;;;1.03;0.60;;;21.60;74.50;;;;;;4954349;29;20415;-77
2022/08/06 17:00:35;;;;;;;1.50;0.67;;;21.50;75.70;;;;;;4954703;28;20219;-77
2022/08/06 17:03:07;;;;;;;1.10;0.60;;;21.30;73.40;;;;;;4954735;28;20902;-81
2022/08/06 17:05:34;;;;;;;1.87;0.70;;;21.00;74.40;;;;;;4954693;28;20395;-81
2022/08/06 17:08:00;;;;;;;2.90;0.73;;;20.70;75.10;;;;;;4954260;28;20457;-77
2022/08/06 17:10:26;;;;;;;4.10;0.60;;;20.40;75.70;;;;;;4954333;28;20422;-77
2022/08/06 17:12:51;;;;;;;1.43;0.60;;;20.10;75.20;;;;;;4954663;29;20698;-80